Time;durP1;ratioP1;P1;durP2;ratioP2;P2;SDS_P1;SDS_P2;PMS_P1;PMS_P2;Temp;Humidity;BMP_temperature;BMP_pressure;BME280_temperature;BME280_humidity;BME280_pressure;Samples;Min_cycle;Max_cycle;Signal;HPM_P1;HPM_P2
2022/10/17 00:02:01;;;;;;;0.35;0.22;;;;;;;21.11;100.00;98786.06;7391409;19;20070;-58
2022/10/17 00:04:28;;;;;;;1.60;0.25;;;;;;;21.16;100.00;98786.44;7390562;19;20379;-58
2022/10/17 00:06:54;;;;;;;1.30;0.20;;;;;;;21.51;100.00;98788.09;7390870;19;20010;-58
2022/10/17 00:09:20;;;;;;;0.57;0.20;;;;;;;21.57;100.00;98791.47;7394168;19;20017;-58
2022/10/17 00:11:46;;;;;;;0.35;0.20;;;;;;;21.34;100.00;98790.84;7389693;19;20015;-58
2022/10/17 00:14:12;;;;;;;0.90;0.45;;;;;;;21.19;100.00;98802.28;7390603;19;20031;-58
2022/10/17 00:16:38;;;;;;;0.80;0.17;;;;;;;21.31;100.00;98789.19;7389743;19;20623;-58
2022/10/17 00:19:06;;;;;;;0.20;0.05;;;;;;;21.18;100.00;98778.13;7392082;19;20014;-59
2022/10/17 00:21:32;;;;;;;0.38;0.20;;;;;;;21.29;100.00;98769.19;7390476;19;20046;-58
2022/10/17 00:24:00;;;;;;;0.82;0.25;;;;;;;21.18;100.00;98775.28;7393126;19;20011;-58
2022/10/17 00:26:29;;;;;;;0.13;0.10;;;;;;;21.34;100.00;98776.69;7389583;19;20014;-59
2022/10/17 00:28:55;;;;;;;0.28;0.10;;;;;;;21.58;100.00;98787.28;7390124;19;20109;-58
2022/10/17 00:31:23;;;;;;;0.30;0.30;;;;;;;21.64;100.00;98776.47;7389914;19;20010;-58
2022/10/17 00:33:50;;;;;;;0.10;0.10;;;;;;;21.55;100.00;98775.03;7390138;19;20015;-58
2022/10/17 00:36:22;;;;;;;0.40;0.13;;;;;;;21.72;100.00;98774.34;7388654;19;20014;-60
2022/10/17 00:38:52;;;;;;;0.20;0.17;;;;;;;21.51;100.00;98766.19;7392415;19;20459;-59
2022/10/17 00:41:20;;;;;;;0.20;0.20;;;;;;;21.33;100.00;98778.03;7389434;19;20010;-59
2022/10/17 00:43:58;;;;;;;3.90;0.55;;;;;;;21.54;100.00;98769.94;7391073;19;20455;-60
2022/10/17 00:46:27;;;;;;;0.10;0.10;;;;;;;20.87;100.00;98769.75;7389804;19;20078;-60
2022/10/17 00:48:55;;;;;;;1.52;0.35;;;;;;;20.83;100.00;98769.41;7391856;19;20014;-60
2022/10/17 00:51:28;;;;;;;0.17;0.17;;;;;;;20.92;100.00;98774.44;7390773;19;20007;-60
2022/10/17 00:53:55;;;;;;;1.17;0.17;;;;;;;21.26;100.00;98784.50;7387593;19;20077;-60
2022/10/17 00:56:22;;;;;;;0.32;0.22;;;;;;;21.26;100.00;98801.47;7386069;19;20014;-60
2022/10/17 00:58:48;;;;;;;0.77;0.50;;;;;;;21.16;100.00;98787.16;7391356;19;20015;-58
2022/10/17 01:01:15;;;;;;;1.38;0.60;;;;;;;21.17;100.00;98794.34;7383330;19;20018;-59
2022/10/17 01:03:43;;;;;;;0.57;0.30;;;;;;;21.24;100.00;98787.16;7383559;19;20018;-60
2022/10/17 01:06:09;;;;;;;0.10;0.10;;;;;;;21.51;100.00;98817.19;7387921;19;20010;-59
2022/10/17 01:08:37;;;;;;;1.38;0.22;;;;;;;21.09;100.00;98821.97;7388613;19;20014;-60
2022/10/17 01:11:30;;;;;;;0.65;0.10;;;;;;;21.21;100.00;98796.78;7388527;19;20097;-59
2022/10/17 01:14:09;;;;;;;0.10;0.10;;;;;;;21.43;100.00;98818.56;7387678;19;20043;-59
2022/10/17 01:17:07;;;;;;;0.30;0.10;;;;;;;21.18;100.00;98818.50;7389750;19;20070;-60
2022/10/17 01:19:56;;;;;;;0.10;0.00;;;;;;;21.07;100.00;98825.34;7390892;19;20377;-59
2022/10/17 01:22:34;;;;;;;0.10;0.00;;;;;;;21.14;100.00;98830.22;7390138;19;20034;-59
2022/10/17 01:25:03;;;;;;;0.10;0.05;;;;;;;21.25;100.00;98828.28;7384956;19;20095;-59
2022/10/17 01:28:09;;;;;;;0.10;0.10;;;;;;;21.25;100.00;98825.44;7386017;19;20021;-59
2022/10/17 01:31:02;;;;;;;0.10;0.10;;;;;;;21.00;100.00;98842.34;7388607;19;20021;-59
2022/10/17 01:33:42;;;;;;;0.10;0.10;;;;;;;21.13;100.00;98840.06;7386268;19;20463;-60
2022/10/17 01:36:31;;;;;;;0.10;0.00;;;;;;;21.25;100.00;98836.78;7385441;19;20011;-60
2022/10/17 01:39:08;;;;;;;0.30;0.20;;;;;;;21.35;100.00;98829.19;7388104;19;20084;-60
2022/10/17 01:41:47;;;;;;;0.15;0.05;;;;;;;21.37;100.00;98849.19;7393984;19;20017;-59
2022/10/17 01:44:22;;;;;;;0.10;0.00;;;;;;;21.79;100.00;98845.16;7393382;19;20022;-58
2022/10/17 01:46:53;;;;;;;4.75;0.70;;;;;;;22.01;100.00;98846.34;7393875;19;20078;-58
2022/10/17 01:49:24;;;;;;;0.30;0.05;;;;;;;22.08;100.00;98868.22;7397778;19;20033;-57
2022/10/17 01:52:22;;;;;;;0.30;0.17;;;;;;;21.96;100.00;98877.75;7397960;19;20038;-56
2022/10/17 01:55:11;;;;;;;0.32;0.20;;;;;;;22.11;100.00;98874.81;7393492;19;20010;-55
2022/10/17 01:57:41;;;;;;;0.10;0.10;;;;;;;22.17;100.00;98876.09;7393506;19;20014;-56
2022/10/17 02:00:13;;;;;;;1.60;0.40;;;;;;;22.33;100.00;98877.44;7393746;19;20031;-56
2022/10/17 02:02:42;;;;;;;0.30;0.25;;;;;;;21.86;100.00;98874.81;7394805;19;20010;-56
2022/10/17 02:05:09;;;;;;;0.10;0.05;;;;;;;21.72;100.00;98882.06;7393496;19;20226;-56
2022/10/17 02:07:35;;;;;;;0.10;0.10;;;;;;;21.59;100.00;98893.66;7392614;19;20035;-56
2022/10/17 02:10:09;;;;;;;0.43;0.13;;;;;;;21.58;100.00;98884.41;7398324;19;20066;-56
2022/10/17 02:12:48;;;;;;;0.65;0.30;;;;;;;21.70;100.00;98901.72;7395112;19;20466;-56
2022/10/17 02:15:36;;;;;;;0.10;0.00;;;;;;;21.75;100.00;98903.56;7391050;19;20019;-57
2022/10/17 02:18:41;;;;;;;0.10;0.00;;;;;;;21.52;100.00;98903.69;7395034;19;20019;-57
2022/10/17 02:21:30;;;;;;;0.10;0.10;;;;;;;21.54;100.00;98903.13;7392796;19;20006;-56
2022/10/17 02:24:02;;;;;;;0.10;0.00;;;;;;;21.33;100.00;98897.00;7392353;19;20015;-56
2022/10/17 02:26:43;;;;;;;0.10;0.10;;;;;;;20.95;100.00;98892.19;7393981;19;20014;-56
2022/10/17 02:29:23;;;;;;;0.10;0.10;;;;;;;21.60;100.00;98886.66;7396939;19;20018;-56
2022/10/17 02:31:59;;;;;;;0.10;0.10;;;;;;;21.58;100.00;98892.13;7394009;19;20565;-56
2022/10/17 02:34:42;;;;;;;0.10;0.10;;;;;;;21.85;100.00;98890.31;7392593;19;20011;-56
2022/10/17 02:37:11;;;;;;;0.10;0.10;;;;;;;21.59;100.00;98896.50;7392262;19;20463;-56
2022/10/17 02:39:39;;;;;;;0.20;0.15;;;;;;;21.80;100.00;98899.75;7395348;19;20034;-56
2022/10/17 02:42:10;;;;;;;0.40;0.20;;;;;;;21.26;100.00;98903.44;7391280;19;20086;-56
2022/10/17 02:44:42;;;;;;;0.10;0.10;;;;;;;21.49;100.00;98906.91;7393317;19;20011;-56
2022/10/17 02:47:15;;;;;;;0.20;0.10;;;;;;;21.49;100.00;98916.16;7392145;19;20375;-56
2022/10/17 02:49:46;;;;;;;2.15;0.40;;;;;;;21.53;100.00;98912.94;7396362;19;20006;-56
2022/10/17 02:52:25;;;;;;;0.35;0.35;;;;;;;21.58;100.00;98911.97;7392893;19;20010;-56
2022/10/17 02:54:57;;;;;;;0.30;0.20;;;;;;;21.91;100.00;98907.84;7391294;19;20014;-56
2022/10/17 02:57:38;;;;;;;0.10;0.10;;;;;;;22.02;100.00;98915.16;7389907;19;20027;-56
2022/10/17 03:00:06;;;;;;;;;;;;;;;22.12;100.00;98919.59;7393960;19;20371;-56
2022/10/17 03:02:46;;;;;;;0.10;0.00;;;;;;;22.35;100.00;98919.44;7390987;19;19915;-56
2022/10/17 03:05:19;;;;;;;0.17;0.10;;;;;;;22.30;100.00;98921.19;7391807;19;20007;-56
2022/10/17 03:07:45;;;;;;;0.10;0.10;;;;;;;22.07;100.00;98917.75;7393447;19;20006;-56
2022/10/17 03:10:12;;;;;;;0.47;0.30;;;;;;;22.16;100.00;98925.63;7395581;19;20010;-56
2022/10/17 03:12:38;;;;;;;4.38;0.20;;;;;;;22.17;100.00;98932.81;7390856;19;20503;-56
2022/10/17 03:15:05;;;;;;;0.20;0.20;;;;;;;22.52;100.00;98933.69;7390375;19;20440;-57
2022/10/17 03:17:32;;;;;;;0.10;0.10;;;;;;;22.46;100.00;98935.97;7392347;19;20028;-56
2022/10/17 03:19:58;;;;;;;1.52;0.73;;;;;;;22.39;100.00;98931.88;7391114;19;20018;-56
2022/10/17 03:22:24;;;;;;;0.00;0.00;;;;;;;22.42;100.00;98941.31;7392591;19;20021;-56
2022/10/17 03:24:50;;;;;;;0.10;0.10;;;;;;;22.26;100.00;98945.59;7391745;19;20470;-56
2022/10/17 03:27:16;;;;;;;2.90;0.43;;;;;;;22.40;100.00;98953.25;7390667;19;20010;-56
2022/10/17 03:29:44;;;;;;;0.30;0.30;;;;;;;22.45;100.00;98945.84;7394916;19;20033;-57
2022/10/17 03:32:12;;;;;;;4.18;0.63;;;;;;;22.42;100.00;98939.22;7390056;19;20011;-56
2022/10/17 03:34:38;;;;;;;1.90;0.25;;;;;;;22.60;100.00;98937.22;7391284;19;20470;-56
2022/10/17 03:37:05;;;;;;;0.30;0.10;;;;;;;22.56;100.00;98934.78;7390807;19;20014;-56
2022/10/17 03:39:33;;;;;;;0.40;0.40;;;;;;;22.65;100.00;98930.56;7394136;19;20014;-57
2022/10/17 03:41:59;;;;;;;0.10;0.00;;;;;;;22.73;100.00;98953.19;7390595;19;20030;-56
2022/10/17 03:44:25;;;;;;;0.10;0.10;;;;;;;22.85;100.00;98954.22;7389819;19;20027;-56
2022/10/17 03:46:51;;;;;;;0.10;0.00;;;;;;;22.60;100.00;98949.34;7391616;19;20391;-57
2022/10/17 03:49:17;;;;;;;0.10;0.10;;;;;;;22.45;100.00;98960.78;7394484;19;20023;-57
2022/10/17 03:51:44;;;;;;;0.30;0.30;;;;;;;21.79;100.00;98955.69;7391568;19;20021;-57
2022/10/17 03:54:13;;;;;;;14.05;0.65;;;;;;;21.96;100.00;98948.66;7389351;19;20017;-57
2022/10/17 03:56:39;;;;;;;0.10;0.00;;;;;;;22.07;100.00;98965.94;7387774;19;20355;-57
2022/10/17 03:59:13;;;;;;;0.10;0.10;;;;;;;21.98;100.00;98955.25;7393195;19;20343;-56
2022/10/17 04:01:40;;;;;;;0.22;0.22;;;;;;;22.01;100.00;98956.16;7389261;19;20070;-57
2022/10/17 04:04:07;;;;;;;0.10;0.10;;;;;;;22.07;100.00;98965.22;7389419;19;20017;-57
2022/10/17 04:06:35;;;;;;;0.40;0.35;;;;;;;22.32;100.00;98966.75;7390446;19;20030;-57
2022/10/17 04:09:03;;;;;;;0.98;0.20;;;;;;;22.10;100.00;98967.66;7391972;19;20007;-57
2022/10/17 04:11:48;;;;;;;0.10;0.10;;;;;;;22.04;100.00;98958.63;7390224;19;20019;-57
2022/10/17 04:14:14;;;;;;;0.17;0.17;;;;;;;21.98;100.00;98960.94;7389439;19;20351;-57
2022/10/17 04:16:41;;;;;;;0.10;0.10;;;;;;;22.02;100.00;98958.44;7387791;19;20018;-56
2022/10/17 04:19:14;;;;;;;0.35;0.35;;;;;;;21.85;100.00;98969.69;7394540;19;20015;-58
2022/10/17 04:21:44;;;;;;;1.38;0.13;;;;;;;21.40;100.00;98969.84;7392790;19;20011;-57
2022/10/17 04:24:10;;;;;;;0.25;0.10;;;;;;;21.25;100.00;98981.22;7392728;19;20007;-58
2022/10/17 04:26:57;;;;;;;0.20;0.15;;;;;;;21.27;100.00;98979.31;7390683;19;20350;-58
2022/10/17 04:29:27;;;;;;;0.20;0.20;;;;;;;21.02;100.00;98982.00;7393821;19;20206;-58
2022/10/17 04:32:00;;;;;;;0.10;0.10;;;;;;;20.69;100.00;98983.16;7389519;19;20018;-58
2022/10/17 04:35:06;;;;;;;0.10;0.00;;;;;;;20.89;100.00;98979.38;7390533;19;20006;-58
2022/10/17 04:37:45;;;;;;;0.10;0.03;;;;;;;20.66;100.00;98995.59;7392205;19;20014;-57
2022/10/17 04:40:23;;;;;;;0.10;0.10;;;;;;;20.90;100.00;98986.53;7390749;19;20010;-57
2022/10/17 04:43:18;;;;;;;0.57;0.20;;;;;;;20.62;100.00;98998.06;7390657;19;20021;-57
2022/10/17 04:45:52;;;;;;;0.10;0.05;;;;;;;20.61;100.00;99010.72;7389996;19;20010;-57
2022/10/17 04:49:02;;;;;;;0.55;0.30;;;;;;;20.71;100.00;99008.81;7397624;19;20017;-57
2022/10/17 04:51:29;;;;;;;0.10;0.10;;;;;;;20.44;100.00;99012.59;7391906;19;20010;-57
2022/10/17 04:54:18;;;;;;;0.10;0.10;;;;;;;20.39;100.00;99015.03;7390982;19;20018;-57
2022/10/17 04:56:48;;;;;;;0.10;0.10;;;;;;;20.39;100.00;99029.19;7391670;19;20044;-57
2022/10/17 04:59:14;;;;;;;0.45;0.45;;;;;;;20.62;100.00;99029.19;7398917;19;20018;-57
2022/10/17 05:01:43;;;;;;;0.10;0.10;;;;;;;21.04;100.00;99029.59;7393523;19;20027;-57
2022/10/17 05:04:09;;;;;;;0.10;0.00;;;;;;;20.98;100.00;99032.59;7394955;19;20071;-57
2022/10/17 05:06:36;;;;;;;0.10;0.10;;;;;;;20.73;100.00;99028.81;7389822;19;20469;-57
2022/10/17 05:09:23;;;;;;;0.40;0.40;;;;;;;21.21;100.00;99029.75;7386267;19;20040;-57
2022/10/17 05:11:49;;;;;;;0.10;0.10;;;;;;;21.08;100.00;99036.38;7386984;19;20018;-57
2022/10/17 05:14:17;;;;;;;0.45;0.45;;;;;;;21.41;100.00;99025.94;7388093;19;20077;-57
2022/10/17 05:16:43;;;;;;;0.85;0.38;;;;;;;21.56;100.00;99039.31;7394147;19;20015;-57
2022/10/17 05:19:10;;;;;;;0.10;0.10;;;;;;;21.20;100.00;99036.75;7395642;19;20356;-57
2022/10/17 05:21:42;;;;;;;0.13;0.03;;;;;;;21.56;100.00;99050.63;7397229;19;20014;-57
2022/10/17 05:24:12;;;;;;;0.10;0.10;;;;;;;21.23;100.00;99049.00;7397324;19;20010;-57
2022/10/17 05:26:39;;;;;;;0.10;0.10;;;;;;;21.56;100.00;99051.41;7394551;19;20015;-57
2022/10/17 05:29:05;;;;;;;1.75;0.22;;;;;;;22.02;100.00;99046.34;7397705;19;20007;-57
2022/10/17 05:31:36;;;;;;;0.20;0.13;;;;;;;22.12;100.00;99050.06;7395515;19;20490;-57
2022/10/17 05:34:03;;;;;;;0.25;0.17;;;;;;;21.98;100.00;99060.16;7394204;19;20045;-57
2022/10/17 05:36:31;;;;;;;0.47;0.43;;;;;;;21.75;100.00;99079.28;7392238;19;20010;-57
2022/10/17 05:38:59;;;;;;;0.80;0.40;;;;;;;21.34;100.00;99088.25;7397192;19;20027;-57
2022/10/17 05:41:26;;;;;;;0.10;0.10;;;;;;;21.52;100.00;99090.72;7398040;19;20015;-57
2022/10/17 05:43:53;;;;;;;1.40;0.47;;;;;;;21.45;100.00;99096.38;7396405;19;20011;-57
2022/10/17 05:46:27;;;;;;;0.10;0.10;;;;;;;21.18;100.00;99101.69;7392988;19;20017;-57
2022/10/17 05:48:54;;;;;;;0.20;0.20;;;;;;;21.24;100.00;99095.84;7398847;19;20506;-57
2022/10/17 05:51:21;;;;;;;0.20;0.10;;;;;;;21.04;100.00;99118.13;7393979;19;20086;-57
2022/10/17 05:53:47;;;;;;;0.17;0.17;;;;;;;20.93;100.00;99115.63;7393578;19;20380;-57
2022/10/17 05:56:20;;;;;;;0.30;0.20;;;;;;;20.45;100.00;99119.50;7391828;19;20003;-57
2022/10/17 05:58:47;;;;;;;1.27;0.32;;;;;;;20.28;100.00;99134.16;7395998;19;20018;-57
2022/10/17 06:01:32;;;;;;;0.10;0.10;;;;;;;20.26;100.00;99136.03;7394778;19;20014;-57
2022/10/17 06:03:58;;;;;;;0.35;0.35;;;;;;;20.21;100.00;99137.72;7393838;19;20324;-57
2022/10/17 06:06:25;;;;;;;0.10;0.10;;;;;;;20.27;100.00;99140.38;7393564;19;20015;-57
2022/10/17 06:08:51;;;;;;;0.10;0.10;;;;;;;20.69;100.00;99147.28;7395800;19;20017;-57
2022/10/17 06:11:23;;;;;;;0.10;0.03;;;;;;;20.82;100.00;99152.78;7394356;19;20017;-57
2022/10/17 06:13:49;;;;;;;0.10;0.00;;;;;;;20.82;100.00;99160.53;7393778;19;20402;-57
2022/10/17 06:16:21;;;;;;;0.50;0.30;;;;;;;21.43;100.00;99155.69;7390013;19;20011;-57
2022/10/17 06:18:48;;;;;;;0.10;0.10;;;;;;;21.47;100.00;99164.56;7395589;19;20010;-57
2022/10/17 06:21:19;;;;;;;0.15;0.13;;;;;;;21.30;100.00;99170.03;7392433;19;20015;-57
2022/10/17 06:23:49;;;;;;;0.10;0.10;;;;;;;21.93;100.00;99177.38;7391851;19;20082;-57
2022/10/17 06:26:24;;;;;;;0.10;0.10;;;;;;;22.19;100.00;99179.75;7390034;19;20353;-57
2022/10/17 06:28:54;;;;;;;0.75;0.40;;;;;;;22.17;100.00;99181.66;7395411;19;20011;-57
2022/10/17 06:31:20;;;;;;;0.30;0.22;;;;;;;21.76;100.00;99194.19;7395128;19;20007;-57
2022/10/17 06:33:46;;;;;;;0.28;0.28;;;;;;;21.45;100.00;99193.47;7397193;19;20010;-57
2022/10/17 06:36:13;;;;;;;2.53;0.65;;;;;;;21.54;100.00;99194.97;7392176;19;20006;-57
2022/10/17 06:38:40;;;;;;;0.30;0.22;;;;;;;20.04;100.00;99193.19;7392492;19;20080;-57
2022/10/17 06:41:18;;;;;;;0.10;0.10;;;;;;;19.75;100.00;99206.56;7394947;19;20011;-57
2022/10/17 06:43:45;;;;;;;0.55;0.55;;;;;;;20.00;100.00;99218.25;7392163;19;20021;-57
2022/10/17 06:46:30;;;;;;;0.55;0.55;;;;;;;19.83;100.00;99220.78;7393474;19;20011;-57
2022/10/17 06:48:59;;;;;;;2.97;0.82;;;;;;;20.10;100.00;99224.88;7395359;19;20041;-57
2022/10/17 06:51:36;;;;;;;0.30;0.20;;;;;;;20.34;100.00;99224.50;7389935;19;20437;-56
2022/10/17 06:54:04;;;;;;;0.17;0.17;;;;;;;20.66;100.00;99233.28;7387717;19;20099;-56
2022/10/17 06:56:49;;;;;;;3.92;0.63;;;;;;;20.64;100.00;99250.06;7393436;19;20018;-56
2022/10/17 06:59:28;;;;;;;0.10;0.10;;;;;;;20.38;100.00;99256.00;7395934;19;20447;-56
2022/10/17 07:02:00;;;;;;;3.08;0.73;;;;;;;20.34;100.00;99270.50;7396318;19;20459;-56
2022/10/17 07:04:28;;;;;;;0.10;0.10;;;;;;;20.64;100.00;99269.88;7391338;19;20010;-56
2022/10/17 07:06:54;;;;;;;0.10;0.10;;;;;;;19.59;100.00;99279.19;7393244;19;20296;-56
2022/10/17 07:09:23;;;;;;;0.10;0.10;;;;;;;20.12;100.00;99276.75;7394892;19;20082;-56
2022/10/17 07:11:49;;;;;;;0.10;0.10;;;;;;;20.41;100.00;99286.00;7390622;19;20474;-56
2022/10/17 07:14:17;;;;;;;0.10;0.10;;;;;;;21.14;100.00;99300.28;7392799;19;20040;-57
2022/10/17 07:16:45;;;;;;;0.40;0.40;;;;;;;21.24;100.00;99299.75;7388816;19;20014;-56
2022/10/17 07:19:18;;;;;;;0.10;0.10;;;;;;;21.34;100.00;99307.16;7394743;19;20015;-57
2022/10/17 07:21:44;;;;;;;0.30;0.17;;;;;;;21.11;100.00;99318.41;7390085;19;20074;-57
2022/10/17 07:24:11;;;;;;;0.17;0.17;;;;;;;20.86;100.00;99320.19;7390552;19;20038;-57
2022/10/17 07:26:40;;;;;;;0.57;0.43;;;;;;;21.02;100.00;99333.09;7389603;19;20371;-57
2022/10/17 07:29:08;;;;;;;0.10;0.10;;;;;;;21.10;100.00;99335.97;7393955;19;20011;-57
2022/10/17 07:31:39;;;;;;;5.40;0.30;;;;;;;20.84;100.00;99339.78;7389811;19;20014;-57
2022/10/17 07:34:05;;;;;;;0.22;0.10;;;;;;;20.83;100.00;99343.19;7389187;19;20006;-57
2022/10/17 07:36:31;;;;;;;2.28;0.70;;;;;;;20.29;100.00;99358.34;7389059;19;20096;-57
2022/10/17 07:38:59;;;;;;;0.20;0.20;;;;;;;20.35;100.00;99361.78;7392439;19;20041;-58
2022/10/17 07:41:26;;;;;;;0.10;0.00;;;;;;;20.22;100.00;99367.53;7393940;19;20027;-58
2022/10/17 07:43:53;;;;;;;0.40;0.38;;;;;;;20.58;100.00;99361.91;7392649;19;20015;-58
2022/10/17 07:46:23;;;;;;;0.10;0.10;;;;;;;20.81;100.00;99369.19;7390798;19;20014;-58
2022/10/17 07:48:50;;;;;;;3.83;0.30;;;;;;;20.71;100.00;99371.03;7392874;19;20102;-56
2022/10/17 07:51:20;;;;;;;0.10;0.10;;;;;;;21.17;100.00;99372.06;7390666;19;20050;-55
2022/10/17 07:53:47;;;;;;;7.10;0.68;;;;;;;21.80;100.00;99381.66;7391733;19;20030;-56
2022/10/17 07:56:13;;;;;;;0.65;0.17;;;;;;;21.93;100.00;99390.03;7390014;19;20011;-58
2022/10/17 07:58:39;;;;;;;0.20;0.20;;;;;;;18.00;100.00;99403.25;7391060;19;20034;-58
2022/10/17 08:01:09;;;;;;;0.43;0.43;;;;;;;13.98;100.00;99412.44;7391372;19;20010;-58
2022/10/17 08:03:36;;;;;;;1.00;0.38;;;;;;;13.14;100.00;99410.81;7390622;19;20342;-58
2022/10/17 08:06:02;;;;;;;5.60;0.68;;;;;;;12.53;100.00;99423.72;7391289;19;20003;-57
2022/10/17 08:08:29;;;;;;;0.50;0.50;;;;;;;16.88;100.00;99415.84;7393261;19;20027;-57
2022/10/17 08:11:01;;;;;;;0.40;0.20;;;;;;;19.55;100.00;99413.59;7389376;19;20043;-57
2022/10/17 08:13:28;;;;;;;6.10;0.43;;;;;;;19.16;100.00;99417.25;7390885;19;20010;-57
2022/10/17 08:16:02;;;;;;;0.10;0.10;;;;;;;17.43;100.00;99420.78;7388883;19;20018;-57
2022/10/17 08:18:28;;;;;;;3.85;0.75;;;;;;;13.30;100.00;99431.69;7391162;19;20014;-58
2022/10/17 08:20:57;;;;;;;0.10;0.10;;;;;;;13.04;100.00;99426.22;7392086;19;20091;-58
2022/10/17 08:23:24;;;;;;;2.17;0.55;;;;;;;12.35;100.00;99426.88;7391442;19;20025;-58
2022/10/17 08:25:50;;;;;;;1.33;0.63;;;;;;;12.77;100.00;99432.47;7389086;19;20018;-58
2022/10/17 08:28:16;;;;;;;0.20;0.17;;;;;;;12.80;100.00;99439.84;7389365;19;20015;-59
2022/10/17 08:30:42;;;;;;;4.15;0.40;;;;;;;14.93;100.00;99433.41;7390350;19;20339;-58
2022/10/17 08:33:09;;;;;;;0.10;0.10;;;;;;;12.97;100.00;99435.13;7390387;19;20018;-59
2022/10/17 08:35:35;;;;;;;1.23;0.85;;;;;;;12.65;100.00;99461.59;7389996;19;20019;-58
2022/10/17 08:38:02;;;;;;;0.45;0.35;;;;;;;13.36;100.00;99455.59;7391312;19;20011;-59
2022/10/17 08:40:34;;;;;;;0.10;0.03;;;;;;;12.10;100.00;99473.94;7390852;19;20107;-58
2022/10/17 08:43:00;;;;;;;7.63;0.75;;;;;;;12.28;100.00;99472.03;7390658;19;20782;-58
2022/10/17 08:45:31;;;;;;;7.97;0.63;;;;;;;12.28;100.00;99477.63;7389940;19;20007;-56
2022/10/17 08:47:59;;;;;;;0.10;0.10;;;;;;;12.34;100.00;99475.63;7390207;19;20010;-58
2022/10/17 08:50:25;;;;;;;3.03;0.30;;;;;;;12.71;100.00;99481.97;7387541;19;20054;-58
2022/10/17 08:52:54;;;;;;;0.52;0.10;;;;;;;12.78;100.00;99484.28;7390143;19;20026;-59
2022/10/17 08:55:36;;;;;;;0.10;0.10;;;;;;;13.04;100.00;99498.91;7389754;19;20455;-57
2022/10/17 08:58:14;;;;;;;0.22;0.22;;;;;;;13.86;100.00;99491.34;7390300;19;20015;-57
2022/10/17 09:00:49;;;;;;;0.30;0.30;;;;;;;13.14;100.00;99497.47;7389792;19;20018;-57
2022/10/17 09:03:44;;;;;;;0.40;0.15;;;;;;;13.03;100.00;99503.00;7386896;19;20028;-57
2022/10/17 09:06:28;;;;;;;0.10;0.10;;;;;;;13.51;100.00;99509.28;7389453;19;20039;-56
2022/10/17 09:09:09;;;;;;;0.60;0.22;;;;;;;14.28;100.00;99503.06;7392292;19;20042;-57
2022/10/17 09:11:41;;;;;;;6.57;0.65;;;;;;;15.57;100.00;99501.50;7388909;19;20019;-57
2022/10/17 09:14:31;;;;;;;1.17;1.08;;;;;;;15.55;100.00;99504.81;7389704;19;20026;-57
2022/10/17 09:17:14;;;;;;;0.10;0.10;;;;;;;14.36;100.00;99511.75;7387684;19;20011;-57
2022/10/17 09:19:49;;;;;;;0.20;0.20;;;;;;;14.30;100.00;99510.97;7394127;19;20010;-57
2022/10/17 09:22:20;;;;;;;0.57;0.30;;;;;;;16.18;100.00;99493.44;7389025;19;20498;-56
2022/10/17 09:24:54;;;;;;;0.10;0.00;;;;;;;16.14;100.00;99506.22;7388500;19;20015;-57
2022/10/17 09:27:26;;;;;;;1.75;0.65;;;;;;;16.96;100.00;99510.38;7388685;19;20014;-57
2022/10/17 09:30:16;;;;;;;0.10;0.10;;;;;;;16.37;100.00;99519.59;7389699;19;20015;-58
2022/10/17 09:32:42;;;;;;;0.63;0.55;;;;;;;14.33;100.00;99526.78;7388741;19;20361;-57
2022/10/17 09:35:13;;;;;;;0.20;0.20;;;;;;;15.61;100.00;99532.88;7388153;19;20031;-56
2022/10/17 09:37:40;;;;;;;0.65;0.45;;;;;;;16.86;100.00;99526.06;7389602;19;20038;-57
2022/10/17 09:40:16;;;;;;;1.75;0.45;;;;;;;19.11;100.00;99519.72;7390687;19;20014;-57
2022/10/17 09:42:46;;;;;;;7.20;0.90;;;;;;;18.36;100.00;99536.19;7387812;19;20034;-57
2022/10/17 09:45:18;;;;;;;4.47;0.38;;;;;;;18.45;100.00;99526.59;7387827;19;20095;-58
2022/10/17 09:47:54;;;;;;;0.20;0.20;;;;;;;18.45;100.00;99529.41;7387976;19;20017;-58
2022/10/17 09:50:26;;;;;;;0.65;0.13;;;;;;;15.55;100.00;99537.75;7387664;19;20011;-58
2022/10/17 09:52:54;;;;;;;3.55;0.28;;;;;;;14.58;100.00;99559.38;7388182;19;20014;-58
2022/10/17 09:55:41;;;;;;;0.25;0.25;;;;;;;15.07;100.00;99549.38;7386333;19;20011;-58
2022/10/17 09:58:08;;;;;;;2.45;0.20;;;;;;;14.59;100.00;99544.09;7388480;19;20011;-60
2022/10/17 10:00:37;;;;;;;4.22;0.30;;;;;;;14.09;100.00;99558.06;7389477;19;20504;-58
2022/10/17 10:03:23;;;;;;;0.10;0.00;;;;;;;14.41;100.00;99569.81;7393817;19;20382;-58
2022/10/17 10:06:04;;;;;;;0.15;0.10;;;;;;;15.01;100.00;99560.59;7395113;19;20014;-58
2022/10/17 10:08:34;;;;;;;0.20;0.15;;;;;;;19.46;100.00;99561.69;7397325;19;20018;-58
2022/10/17 10:11:04;;;;;;;0.30;0.22;;;;;;;16.12;100.00;99565.75;7394750;19;20017;-57
2022/10/17 10:13:32;;;;;;;0.65;0.40;;;;;;;16.19;100.00;99576.44;7394569;19;20743;-58
2022/10/17 10:16:20;;;;;;;2.55;0.10;;;;;;;19.85;100.00;99574.22;7392157;19;20082;-58
2022/10/17 10:18:48;;;;;;;0.65;0.35;;;;;;;19.81;100.00;99580.22;7397159;19;20489;-58
2022/10/17 10:21:15;;;;;;;3.00;0.63;;;;;;;18.35;100.00;99581.81;7394009;19;20006;-58
2022/10/17 10:23:44;;;;;;;1.83;0.25;;;;;;;17.19;100.00;99584.06;7395303;19;20007;-58
2022/10/17 10:26:16;;;;;;;14.10;1.85;;;;;;;17.68;100.00;99581.97;7393136;19;20018;-58
2022/10/17 10:28:54;;;;;;;0.82;0.38;;;;;;;20.45;100.00;99597.56;7394977;19;20408;-58
2022/10/17 10:31:35;;;;;;;1.65;0.40;;;;;;;18.42;100.00;99601.69;7398687;19;20386;-58
2022/10/17 10:34:14;;;;;;;2.85;0.55;;;;;;;18.53;100.00;99607.19;7397088;19;20018;-57
2022/10/17 10:36:48;;;;;;;0.20;0.20;;;;;;;20.30;100.00;99614.38;7393468;19;20015;-58
2022/10/17 10:39:44;;;;;;;4.05;0.28;;;;;;;20.99;100.00;99620.16;7399209;19;20017;-58
2022/10/17 10:42:25;;;;;;;0.10;0.10;;;;;;;21.88;100.00;99620.63;7393756;19;20007;-58
2022/10/17 10:44:54;;;;;;;0.20;0.20;;;;;;;19.12;100.00;99633.41;7394023;19;20006;-58
2022/10/17 10:47:25;;;;;;;0.43;0.22;;;;;;;21.32;100.00;99623.47;7394071;19;20015;-58
2022/10/17 10:50:07;;;;;;;3.72;0.10;;;;;;;22.59;100.00;99631.88;7394438;19;20035;-58
2022/10/17 10:52:50;;;;;;;1.23;0.57;;;;;;;24.17;100.00;99621.72;7394304;19;20035;-58
2022/10/17 10:55:25;;;;;;;0.20;0.20;;;;;;;18.61;100.00;99641.16;7392511;19;20065;-59
2022/10/17 10:57:54;;;;;;;1.88;0.47;;;;;;;18.70;100.00;99644.38;7392931;19;20014;-59
2022/10/17 11:00:25;;;;;;;3.75;0.52;;;;;;;19.25;100.00;99648.28;7392265;19;20315;-58
2022/10/17 11:02:57;;;;;;;0.43;0.10;;;;;;;19.55;100.00;99651.66;7392442;19;20014;-57
2022/10/17 11:05:40;;;;;;;4.95;0.35;;;;;;;19.92;100.00;99664.78;7391142;19;20466;-60
2022/10/17 11:08:08;;;;;;;0.52;0.38;;;;;;;18.24;100.00;99652.44;7391089;19;20010;-59
2022/10/17 11:10:43;;;;;;;0.10;0.10;;;;;;;21.24;100.00;99665.91;7389918;19;20014;-60
2022/10/17 11:13:27;;;;;;;1.20;0.32;;;;;;;20.39;100.00;99668.44;7387935;19;20031;-60
2022/10/17 11:16:04;;;;;;;0.40;0.30;;;;;;;20.27;100.00;99672.06;7388871;19;20459;-60
2022/10/17 11:18:46;;;;;;;0.40;0.13;;;;;;;21.58;100.00;99685.63;7392575;19;20365;-61
2022/10/17 11:21:18;;;;;;;3.00;0.50;;;;;;;21.95;100.00;99687.97;7387719;19;20177;-60
2022/10/17 11:27:04;;;;;;;5.28;0.75;;;;;;;22.95;100.00;99691.41;7389637;19;20779;-56
2022/10/17 11:29:33;;;;;;;4.18;0.20;;;;;;;23.78;99.77;99682.88;7392142;19;20018;-56
2022/10/17 11:32:27;;;;;;;7.97;0.73;;;;;;;24.22;92.27;99676.91;7390190;19;20014;-56
2022/10/17 11:35:45;;;;;;;0.10;0.10;;;;;;;23.39;96.45;99686.34;7387797;19;20022;-57
2022/10/17 11:38:30;;;;;;;3.63;0.32;;;;;;;23.03;96.62;99714.91;7391277;19;20018;-56
2022/10/17 11:40:58;;;;;;;0.20;0.13;;;;;;;24.30;90.32;99731.75;7393335;19;20015;-56
2022/10/17 11:43:36;;;;;;;7.78;1.13;;;;;;;23.38;91.86;99738.84;7391815;19;20014;-57
2022/10/17 11:46:22;;;;;;;2.80;0.98;;;;;;;24.02;88.01;99727.78;7391701;19;20361;-57
2022/10/17 11:48:51;;;;;;;5.05;0.45;;;;;;;24.04;87.61;99741.44;7394898;19;20018;-56
2022/10/17 11:51:17;;;;;;;0.10;0.05;;;;;;;24.46;84.29;99744.56;7389620;19;20827;-60
2022/10/17 11:53:54;;;;;;;8.07;0.80;;;;;;;24.72;83.53;99746.94;7390632;19;20081;-56
2022/10/17 11:56:30;;;;;;;7.97;1.23;;;;;;;23.88;83.99;99763.47;7390327;19;20086;-56